← Previous June 17, 2024 7:55 PM

FTUS43 KFGF 151120
TAFFAR
TAF
KFAR 151120Z 1512/1612 15009KT P6SM BKN100
     FM151600 17018G28KT P6SM BKN060
     FM151900 16022G30KT P6SM BKN030
     FM160500 15011KT P6SM BKN020=